Disclaimer

    

CYCD

METAR CYCD 020200Z 00000KT 8SM SCT020 OVC036 03/02 A3015 RMK SC4SC4 SLP211=

METAR CYCD 020100Z 15003KT 10SM SCT011 OVC018 04/02 A3015 RMK SF3SC5 SLP212=

METAR CYCD 020000Z 15005KT 10SM BKN010 OVC032 04/02 A3015 RMK SC6SC2 SLP214=

TAF CYCD 012340Z 0200/0205 15005KT P6SM BKN020 OVC090 TEMPO0200/0205 SCT020 BKN120RMK NXT FCST BY 021600Z

CYVR

METAR CYVR 020200Z 06004KT 15SM BKN080 OVC120 OVC220 05/03 A3015 RMK AC7AC1CI1 CI TR SLP212=

METAR CYVR 020100Z 07005KT 15SM SCT042 BKN062 OVC095 05/03 A3015 RMK SC3SC3AC2 SLP213=

METAR CYVR 020000Z 06006KT 15SM SCT055 OVC100 06/01 A3016 RMK SC4AC4 SLP214=

TAF CYVR 012340Z 0200/0306 08008KT P6SM FEW025 BKN050 OVC080FM020200 08008KT P6SM FEW050 BKN160FM020600 08005KT P6SM FEW140 BKN200FM022000 09008KT P6SM SCT140 BKN170RMK NXT FCST BY 020300Z

CYXX

METAR CYXX 020200Z 05006KT 15SM SCT075 BKN120 BKN150 02/01 A3015 RMK AS3AC3AC1 SLP213=

METAR CYXX 020100Z 05004KT 30SM FEW074 SCT087 BKN110 02/01 A3016 RMK AS2AC2AC3 VIRGA SLP216=

METAR CYXX 020000Z 01004KT 30SM SCT089 BKN095 BKN120 02/01 A3015 RMK AS3AC3AC1 VIRGA SLP214=

TAF CYXX 012340Z 0200/0224 02005KT P6SM SCT070 BKN120FM020600 04005KT P6SM SCT150 BKN180RMK NXT FCST BY 020600Z=

Supplemental information

Lower mainland ATIS: 1-877-517-2847

CZBB (Boundary Bay) current winds

Upper winds (Vancouver)

Data fromValid at300060009000
01120001180016162310-052527-07
01120002000015132108-042531-05
01120002120014191613-012229-06

NOTAMs

On October 10, 2019, NAV CANADA changed to the ICAO NOTAM format. They are now available only through Collaborative Flight Planning Services (CFPS) (plan.navcanada.ca). I'm working to update this site to pull in the relevant NOTAMs in the new format.